createdAt,value
2022-12-11T00:01:11.780Z,3.60
2022-12-11T00:03:42.488Z,3.60
2022-12-11T00:06:13.788Z,3.30
2022-12-11T00:08:53.748Z,3.20
2022-12-11T00:11:23.237Z,3.20
2022-12-11T00:13:51.617Z,3.40
2022-12-11T00:16:25.221Z,3.40
2022-12-11T00:18:55.752Z,3.60
2022-12-11T00:21:23.913Z,3.20
2022-12-11T00:23:52.387Z,3.20
2022-12-11T00:26:21.064Z,3.40
2022-12-11T00:28:53.762Z,3.40
2022-12-11T00:31:23.089Z,3.20
2022-12-11T00:33:51.503Z,3.50
2022-12-11T00:36:23.422Z,3.10
2022-12-11T00:38:52.318Z,3.50
2022-12-11T00:41:20.737Z,3.10
2022-12-11T00:43:49.074Z,3.30
2022-12-11T00:46:17.275Z,3.00
2022-12-11T00:48:46.505Z,3.10
2022-12-11T00:51:14.558Z,3.30
2022-12-11T00:53:43.806Z,3.80
2022-12-11T00:58:42.262Z,3.10
2022-12-11T01:01:12.489Z,3.20
2022-12-11T01:03:40.788Z,3.10
2022-12-11T01:06:13.186Z,3.40
2022-12-11T01:08:41.261Z,3.70
2022-12-11T01:11:13.262Z,3.00
2022-12-11T01:13:42.233Z,3.30
2022-12-11T01:16:14.225Z,3.40
2022-12-11T01:18:43.009Z,3.00
2022-12-11T01:21:13.499Z,3.50
2022-12-11T01:23:41.535Z,3.30
2022-12-11T01:26:11.743Z,3.50
2022-12-11T01:28:40.662Z,3.40
2022-12-11T01:31:16.942Z,3.10
2022-12-11T01:33:45.651Z,3.40
2022-12-11T01:36:16.960Z,3.50
2022-12-11T01:38:46.510Z,2.90
2022-12-11T01:41:15.334Z,3.40
2022-12-11T01:44:03.965Z,3.20
2022-12-11T01:46:34.683Z,3.10
2022-12-11T01:49:07.569Z,3.60
2022-12-11T01:51:47.000Z,3.60
2022-12-11T01:54:17.625Z,3.40
2022-12-11T01:56:46.822Z,4.20
2022-12-11T01:59:17.984Z,4.30
2022-12-11T02:02:25.638Z,4.00
2022-12-11T02:04:53.737Z,4.20
2022-12-11T02:07:22.011Z,4.00
2022-12-11T02:09:50.504Z,4.00
2022-12-11T02:13:05.219Z,3.60
2022-12-11T02:15:39.716Z,3.40
2022-12-11T02:18:14.077Z,3.90
2022-12-11T02:20:44.607Z,3.90
2022-12-11T02:23:26.615Z,4.60
2022-12-11T02:25:58.283Z,4.40
2022-12-11T02:28:38.349Z,4.10
2022-12-11T02:31:32.736Z,4.20
2022-12-11T02:34:32.507Z,4.20
2022-12-11T02:37:17.782Z,3.80
2022-12-11T02:39:47.714Z,4.30
2022-12-11T02:42:16.666Z,4.40
2022-12-11T02:47:16.720Z,3.80
2022-12-11T02:49:48.421Z,4.40
2022-12-11T02:52:20.396Z,4.60
2022-12-11T02:54:51.021Z,4.50
2022-12-11T02:57:33.639Z,5.20
2022-12-11T03:00:02.214Z,4.70
2022-12-11T03:02:31.068Z,4.80
2022-12-11T03:05:23.443Z,4.40
2022-12-11T03:07:51.587Z,4.70
2022-12-11T03:10:20.415Z,4.50
2022-12-11T03:15:30.346Z,4.50
2022-12-11T03:18:10.043Z,4.00
2022-12-11T03:20:44.365Z,4.30
2022-12-11T03:23:34.810Z,3.70
2022-12-11T03:26:06.691Z,3.30
2022-12-11T03:28:43.698Z,3.80
2022-12-11T03:31:17.657Z,3.30
2022-12-11T03:33:49.527Z,3.10
2022-12-11T03:36:22.336Z,4.50
2022-12-11T03:38:56.473Z,4.70
2022-12-11T03:41:28.132Z,5.10
2022-12-11T03:43:58.810Z,5.10
2022-12-11T03:46:37.016Z,5.20
2022-12-11T03:49:16.159Z,5.50
2022-12-11T03:54:17.601Z,4.40
2022-12-11T03:56:48.746Z,4.50
2022-12-11T03:59:16.878Z,4.60
2022-12-11T04:01:45.303Z,3.80
2022-12-11T04:04:13.541Z,3.60
2022-12-11T04:06:41.836Z,3.60
2022-12-11T04:09:09.779Z,3.50
2022-12-11T04:11:38.460Z,3.20
2022-12-11T04:14:30.479Z,3.50
2022-12-11T04:17:00.554Z,4.60
2022-12-11T04:19:46.748Z,4.70
2022-12-11T04:22:36.425Z,4.40
2022-12-11T04:25:07.305Z,4.20
2022-12-11T04:27:50.806Z,4.10
2022-12-11T04:30:29.323Z,4.20
2022-12-11T04:33:00.739Z,4.10
2022-12-11T04:35:29.248Z,4.40
2022-12-11T04:37:58.590Z,5.00
2022-12-11T04:42:54.885Z,3.60
2022-12-11T04:45:23.115Z,3.70
2022-12-11T04:47:51.516Z,3.60
2022-12-11T04:50:19.499Z,3.50
2022-12-11T04:53:12.742Z,3.70
2022-12-11T04:55:44.143Z,3.60
2022-12-11T04:58:12.076Z,3.70
2022-12-11T05:00:41.558Z,3.30
2022-12-11T05:03:10.396Z,3.00
2022-12-11T05:05:38.973Z,4.00
2022-12-11T05:08:08.261Z,4.00
2022-12-11T05:10:36.297Z,3.10
2022-12-11T05:13:04.476Z,3.60
2022-12-11T05:15:32.350Z,4.00
2022-12-11T05:18:01.075Z,3.60
2022-12-11T05:20:29.052Z,3.30
2022-12-11T05:22:57.414Z,3.30
2022-12-11T05:25:25.931Z,4.30
2022-12-11T05:27:53.891Z,3.50
2022-12-11T05:30:21.862Z,3.70
2022-12-11T05:32:49.830Z,3.10
2022-12-11T05:35:17.842Z,3.80
2022-12-11T05:37:45.827Z,4.00
2022-12-11T05:40:14.113Z,3.40
2022-12-11T05:42:42.272Z,3.60
2022-12-11T05:45:11.199Z,3.80
2022-12-11T05:47:39.453Z,3.50
2022-12-11T05:50:08.047Z,3.10
2022-12-11T05:52:36.334Z,3.20
2022-12-11T05:55:04.525Z,3.20
2022-12-11T05:57:32.790Z,3.80
2022-12-11T06:00:00.948Z,3.20
2022-12-11T06:02:28.977Z,3.10
2022-12-11T06:04:57.082Z,3.00
2022-12-11T06:07:25.087Z,3.10
2022-12-11T06:09:53.069Z,2.80
2022-12-11T06:12:21.568Z,3.30
2022-12-11T06:14:49.863Z,3.20
2022-12-11T06:17:18.072Z,3.00
2022-12-11T06:19:46.004Z,3.30
2022-12-11T06:22:14.145Z,3.20
2022-12-11T06:24:42.126Z,2.80
2022-12-11T06:27:10.268Z,3.20
2022-12-11T06:29:38.292Z,3.20
2022-12-11T06:32:07.130Z,3.00
2022-12-11T06:34:35.307Z,3.00
2022-12-11T06:37:03.557Z,2.90
2022-12-11T06:39:31.888Z,2.30
2022-12-11T06:42:00.110Z,2.80
2022-12-11T06:44:28.456Z,1.80
2022-12-11T06:46:56.539Z,1.60
2022-12-11T06:49:24.701Z,1.00
2022-12-11T06:51:57.829Z,1.00
2022-12-11T06:54:27.517Z,1.00
2022-12-11T06:56:55.618Z,1.10
2022-12-11T06:59:23.681Z,1.20
2022-12-11T07:01:52.274Z,1.30
2022-12-11T07:04:20.519Z,0.70
2022-12-11T07:06:49.337Z,0.70
2022-12-11T07:09:17.230Z,1.00
2022-12-11T07:11:45.490Z,0.80
2022-12-11T07:14:13.573Z,0.60
2022-12-11T07:16:41.668Z,0.60
2022-12-11T07:19:09.662Z,0.60
2022-12-11T07:21:37.665Z,0.60
2022-12-11T07:24:06.189Z,0.60
2022-12-11T07:26:34.116Z,0.80
2022-12-11T07:29:02.187Z,0.70
2022-12-11T07:31:30.535Z,0.50
2022-12-11T07:34:02.029Z,0.60
2022-12-11T07:36:30.655Z,0.70
2022-12-11T07:38:59.622Z,0.90
2022-12-11T07:41:29.017Z,0.60
2022-12-11T07:43:56.976Z,0.70
2022-12-11T07:46:28.018Z,0.80
2022-12-11T07:48:55.966Z,0.70
2022-12-11T07:51:29.886Z,0.70
2022-12-11T07:54:03.214Z,0.70
2022-12-11T07:56:32.285Z,1.00
2022-12-11T07:59:06.215Z,0.40
2022-12-11T08:01:36.710Z,0.50
2022-12-11T08:04:07.269Z,0.80
2022-12-11T08:06:38.267Z,0.30
2022-12-11T08:09:08.662Z,0.80
2022-12-11T08:11:37.012Z,0.60
2022-12-11T08:14:06.725Z,0.50
2022-12-11T08:16:34.916Z,0.60
2022-12-11T08:19:03.071Z,0.60
2022-12-11T08:21:31.049Z,0.60
2022-12-11T08:23:59.034Z,0.70
2022-12-11T08:26:29.624Z,0.80
2022-12-11T08:28:58.507Z,0.90
2022-12-11T08:31:27.228Z,1.10
2022-12-11T08:33:56.771Z,1.10
2022-12-11T08:36:25.471Z,1.10
2022-12-11T08:38:55.429Z,1.00
2022-12-11T08:41:29.342Z,0.80
2022-12-11T08:44:00.542Z,0.80
2022-12-11T08:46:32.640Z,0.80
2022-12-11T08:49:00.879Z,0.80
2022-12-11T08:51:31.004Z,0.80
2022-12-11T08:54:01.178Z,1.40
2022-12-11T08:56:30.141Z,1.40
2022-12-11T08:59:01.175Z,1.20
2022-12-11T09:01:30.083Z,1.20
2022-12-11T09:03:59.504Z,1.30
2022-12-11T09:06:29.523Z,1.50
2022-12-11T09:09:00.254Z,1.90
2022-12-11T09:11:35.487Z,1.40
2022-12-11T09:14:07.932Z,1.40
2022-12-11T09:16:40.884Z,1.40
2022-12-11T09:19:14.117Z,1.50
2022-12-11T09:21:43.567Z,1.10
2022-12-11T09:24:13.006Z,1.10
2022-12-11T09:26:42.051Z,1.60
2022-12-11T09:31:38.941Z,1.70
2022-12-11T09:34:08.931Z,1.50
2022-12-11T09:36:38.713Z,1.60
2022-12-11T09:39:09.165Z,1.40
2022-12-11T09:41:46.731Z,1.60
2022-12-11T09:44:30.515Z,1.70
2022-12-11T09:46:59.186Z,1.60
2022-12-11T09:49:31.938Z,1.60
2022-12-11T09:52:21.164Z,2.90
2022-12-11T09:55:01.017Z,4.70
2022-12-11T09:57:32.001Z,2.80
2022-12-11T10:00:09.626Z,1.20
2022-12-11T10:03:02.509Z,1.20
2022-12-11T10:05:45.373Z,1.00
2022-12-11T10:08:25.695Z,0.90
2022-12-11T10:11:15.251Z,1.30
2022-12-11T10:13:50.470Z,1.60
2022-12-11T10:16:45.825Z,1.20
2022-12-11T10:19:34.810Z,1.20
2022-12-11T10:22:03.754Z,1.20
2022-12-11T10:27:33.173Z,1.50
2022-12-11T10:30:34.837Z,1.80
2022-12-11T10:33:23.372Z,1.50
2022-12-11T10:35:54.882Z,2.50
2022-12-11T10:38:42.761Z,1.70
2022-12-11T10:41:14.416Z,2.60
2022-12-11T10:43:46.281Z,2.30
2022-12-11T10:46:26.386Z,2.10
2022-12-11T10:49:00.567Z,1.90
2022-12-11T10:51:32.026Z,2.50
2022-12-11T10:54:08.654Z,1.50
2022-12-11T10:56:38.180Z,1.40
2022-12-11T10:59:07.069Z,2.20
2022-12-11T11:01:36.037Z,2.50
2022-12-11T11:04:19.484Z,2.00
2022-12-11T11:06:49.203Z,1.90
2022-12-11T11:09:34.453Z,1.70
2022-12-11T11:12:07.712Z,2.40
2022-12-11T11:14:36.151Z,2.00
2022-12-11T11:17:04.219Z,1.60
2022-12-11T11:19:36.889Z,2.10
2022-12-11T11:22:14.297Z,2.20
2022-12-11T11:25:02.767Z,1.90
2022-12-11T11:27:39.620Z,1.80
2022-12-11T11:30:30.318Z,2.50
2022-12-11T11:33:04.736Z,2.40
2022-12-11T11:35:33.253Z,2.60
2022-12-11T11:38:18.779Z,1.70
2022-12-11T11:41:11.579Z,1.60
2022-12-11T11:43:46.679Z,1.40
2022-12-11T11:46:20.148Z,2.40
2022-12-11T11:49:12.947Z,16.30
2022-12-11T11:51:51.564Z,6.70
2022-12-11T11:54:39.394Z,6.50
2022-12-11T11:57:56.730Z,5.10
2022-12-11T12:00:33.293Z,2.50
2022-12-11T12:03:18.566Z,2.40
2022-12-11T12:06:00.635Z,3.80
2022-12-11T12:08:37.804Z,5.00
2022-12-11T12:11:22.724Z,5.80
2022-12-11T12:13:54.176Z,6.10
2022-12-11T12:16:54.207Z,5.50
2022-12-11T12:19:22.476Z,4.20
2022-12-11T12:21:56.054Z,5.70
2022-12-11T12:24:55.307Z,3.40
2022-12-11T12:27:58.375Z,4.80
2022-12-11T12:30:37.038Z,4.00
2022-12-11T12:33:04.958Z,5.60
2022-12-11T12:35:36.395Z,6.20
2022-12-11T12:38:23.685Z,26.70
2022-12-11T12:41:07.149Z,21.20
2022-12-11T12:44:14.790Z,6.90
2022-12-11T12:46:56.153Z,7.00
2022-12-11T12:49:43.142Z,18.30
2022-12-11T12:52:19.868Z,17.00
2022-12-11T12:55:12.083Z,11.00
2022-12-11T12:57:45.843Z,9.40
2022-12-11T13:00:14.820Z,23.00
2022-12-11T13:02:53.883Z,7.90
2022-12-11T13:05:28.240Z,10.40
2022-12-11T13:08:02.646Z,4.00
2022-12-11T13:10:30.667Z,15.40
2022-12-11T13:13:00.610Z,19.10
2022-12-11T13:15:33.689Z,24.70
2022-12-11T13:18:05.379Z,6.00
2022-12-11T13:20:34.938Z,3.20
2022-12-11T13:23:06.279Z,9.40
2022-12-11T13:25:59.564Z,8.00
2022-12-11T13:28:31.302Z,12.50
2022-12-11T13:31:07.782Z,14.60
2022-12-11T13:33:43.235Z,11.90
2022-12-11T13:36:17.744Z,8.60
2022-12-11T13:39:11.032Z,7.30
2022-12-11T13:41:40.313Z,5.80
2022-12-11T13:44:18.463Z,4.30
2022-12-11T13:46:46.727Z,4.50
2022-12-11T13:49:23.553Z,4.20
2022-12-11T13:52:00.684Z,5.20
2022-12-11T13:54:34.200Z,7.00
2022-12-11T13:57:16.537Z,8.70
2022-12-11T13:59:59.721Z,3.70
2022-12-11T14:02:35.687Z,6.70
2022-12-11T14:05:07.430Z,9.20
2022-12-11T14:07:40.811Z,13.50
2022-12-11T14:10:20.134Z,19.40
2022-12-11T14:12:59.630Z,37.30
2022-12-11T14:15:29.963Z,12.10
2022-12-11T14:17:59.459Z,4.50
2022-12-11T14:20:30.719Z,6.60
2022-12-11T14:23:19.673Z,7.10
2022-12-11T14:26:02.858Z,7.20
2022-12-11T14:28:42.356Z,2.20
2022-12-11T14:31:16.119Z,2.30
2022-12-11T14:33:48.247Z,3.40
2022-12-11T14:36:17.712Z,4.00
2022-12-11T14:38:49.754Z,2.40
2022-12-11T14:41:41.216Z,2.60
2022-12-11T14:44:15.726Z,3.20
2022-12-11T14:46:48.434Z,2.70
2022-12-11T14:50:10.678Z,3.30
2022-12-11T14:52:44.370Z,3.70
2022-12-11T14:55:21.403Z,2.50
2022-12-11T14:57:55.154Z,2.00
2022-12-11T15:00:25.802Z,2.10
2022-12-11T15:03:03.735Z,2.10
2022-12-11T15:05:40.544Z,3.00
2022-12-11T15:08:12.755Z,5.40
2022-12-11T15:11:00.798Z,6.30
2022-12-11T15:13:29.129Z,6.00
2022-12-11T15:15:59.293Z,6.50
2022-12-11T15:18:33.023Z,15.40
2022-12-11T15:21:07.153Z,20.40
2022-12-11T15:23:55.613Z,27.20
2022-12-11T15:26:32.749Z,26.10
2022-12-11T15:29:03.305Z,19.40
2022-12-11T15:31:35.193Z,11.40
2022-12-11T15:34:04.438Z,4.00
2022-12-11T15:36:32.746Z,4.00
2022-12-11T15:39:02.013Z,9.70
2022-12-11T15:41:33.520Z,20.00
2022-12-11T15:44:04.195Z,6.60
2022-12-11T15:46:36.563Z,5.80
2022-12-11T15:49:13.667Z,8.90
2022-12-11T15:51:43.327Z,9.80
2022-12-11T15:54:11.866Z,4.40
2022-12-11T15:57:07.878Z,8.90
2022-12-11T15:59:36.492Z,9.90
2022-12-11T16:02:11.880Z,11.00
2022-12-11T16:04:41.130Z,9.30
2022-12-11T16:07:22.791Z,7.60
2022-12-11T16:09:52.564Z,6.30
2022-12-11T16:12:20.884Z,13.60
2022-12-11T16:14:49.054Z,6.50
2022-12-11T16:17:17.646Z,13.00
2022-12-11T16:19:46.121Z,5.00
2022-12-11T16:22:14.581Z,9.70
2022-12-11T16:24:43.518Z,5.20
2022-12-11T16:27:21.439Z,4.30
2022-12-11T16:29:51.305Z,4.10
2022-12-11T16:32:22.229Z,3.30
2022-12-11T16:34:51.174Z,2.60
2022-12-11T16:37:19.646Z,2.80
2022-12-11T16:39:48.576Z,3.20
2022-12-11T16:42:17.591Z,4.30
2022-12-11T16:44:45.700Z,4.40
2022-12-11T16:47:14.004Z,8.50
2022-12-11T16:49:45.404Z,6.10
2022-12-11T16:52:17.583Z,3.80
2022-12-11T16:54:51.648Z,7.20
2022-12-11T16:57:19.734Z,5.20
2022-12-11T16:59:48.062Z,6.90
2022-12-11T17:02:16.499Z,5.00
2022-12-11T17:04:52.106Z,4.10
2022-12-11T17:07:21.717Z,6.30
2022-12-11T17:09:50.607Z,4.10
2022-12-11T17:12:19.261Z,6.80
2022-12-11T17:14:47.539Z,4.20
2022-12-11T17:17:15.535Z,5.90
2022-12-11T17:19:43.804Z,5.90
2022-12-11T17:22:12.549Z,12.70
2022-12-11T17:24:40.670Z,5.10
2022-12-11T17:27:08.745Z,5.60
2022-12-11T17:29:36.803Z,4.60
2022-12-11T17:32:05.412Z,3.50
2022-12-11T17:34:38.058Z,4.90
2022-12-11T17:37:06.606Z,4.80
2022-12-11T17:39:34.836Z,3.70
2022-12-11T17:42:03.122Z,3.50
2022-12-11T17:44:31.303Z,3.30
2022-12-11T17:46:59.264Z,5.10
2022-12-11T17:49:27.646Z,4.90
2022-12-11T17:51:55.876Z,3.40
2022-12-11T17:54:24.412Z,5.60
2022-12-11T17:56:52.493Z,3.80
2022-12-11T17:59:20.483Z,4.00
2022-12-11T18:01:48.757Z,4.30
2022-12-11T18:04:16.893Z,7.00
2022-12-11T18:06:44.780Z,6.50
2022-12-11T18:09:12.796Z,5.10
2022-12-11T18:11:42.466Z,3.00
2022-12-11T18:14:16.701Z,2.80
2022-12-11T18:16:45.621Z,3.10
2022-12-11T18:19:14.683Z,2.90
2022-12-11T18:21:45.861Z,2.40
2022-12-11T18:24:14.433Z,3.90
2022-12-11T18:26:45.576Z,3.40
2022-12-11T18:29:14.685Z,3.90
2022-12-11T18:31:43.379Z,3.80
2022-12-11T18:34:11.690Z,3.70
2022-12-11T18:36:40.797Z,3.70
2022-12-11T18:39:08.916Z,4.20
2022-12-11T18:41:36.988Z,4.60
2022-12-11T18:44:09.751Z,6.90
2022-12-11T18:46:39.715Z,6.30
2022-12-11T18:49:08.197Z,3.70
2022-12-11T18:51:36.168Z,5.50
2022-12-11T18:54:04.739Z,4.70
2022-12-11T18:56:33.292Z,5.60
2022-12-11T18:59:02.573Z,5.80
2022-12-11T19:01:33.755Z,3.80
2022-12-11T19:04:06.531Z,5.30
2022-12-11T19:06:37.173Z,5.60
2022-12-11T19:09:06.850Z,6.90
2022-12-11T19:11:36.341Z,5.20
2022-12-11T19:14:07.422Z,5.50
2022-12-11T19:16:48.033Z,4.50
2022-12-11T19:19:19.871Z,3.70
2022-12-11T19:21:49.022Z,4.70
2022-12-11T19:24:20.223Z,4.30
2022-12-11T19:26:48.892Z,4.40
2022-12-11T19:29:42.594Z,5.00
2022-12-11T19:32:10.911Z,4.10
2022-12-11T19:34:38.786Z,4.10
2022-12-11T19:37:07.321Z,4.70
2022-12-11T19:39:39.026Z,5.60
2022-12-11T19:42:07.525Z,6.20
2022-12-11T19:44:35.764Z,5.70
2022-12-11T19:47:04.719Z,5.40
2022-12-11T19:49:33.436Z,4.80
2022-12-11T19:52:01.706Z,3.90
2022-12-11T19:54:29.699Z,4.90
2022-12-11T19:56:57.863Z,5.80
2022-12-11T19:59:26.229Z,6.40
2022-12-11T20:01:54.939Z,4.60
2022-12-11T20:04:23.372Z,4.40
2022-12-11T20:06:51.622Z,4.00
2022-12-11T20:09:19.810Z,3.80
2022-12-11T20:11:48.015Z,10.30
2022-12-11T20:14:25.495Z,5.40
2022-12-11T20:17:11.368Z,6.30
2022-12-11T20:19:42.572Z,4.20
2022-12-11T20:22:11.107Z,4.20
2022-12-11T20:24:39.395Z,6.80
2022-12-11T20:27:07.574Z,4.70
2022-12-11T20:29:35.848Z,6.50
2022-12-11T20:32:03.904Z,6.40
2022-12-11T20:34:32.023Z,4.60
2022-12-11T20:37:01.406Z,3.80
2022-12-11T20:39:29.647Z,5.10
2022-12-11T20:41:57.935Z,5.90
2022-12-11T20:44:26.121Z,5.20
2022-12-11T20:46:54.705Z,7.80
2022-12-11T20:49:22.727Z,5.40
2022-12-11T20:51:50.826Z,5.10
2022-12-11T20:54:18.890Z,4.70
2022-12-11T20:56:46.978Z,5.90
2022-12-11T20:59:15.354Z,4.70
2022-12-11T21:01:44.508Z,3.90
2022-12-11T21:04:12.722Z,5.90
2022-12-11T21:06:42.173Z,5.30
2022-12-11T21:09:17.952Z,5.10
2022-12-11T21:11:46.357Z,4.70
2022-12-11T21:14:15.968Z,4.60
2022-12-11T21:16:44.299Z,5.00
2022-12-11T21:19:17.030Z,4.30
2022-12-11T21:21:46.649Z,4.30
2022-12-11T21:24:20.846Z,4.50
2022-12-11T21:26:50.023Z,4.90
2022-12-11T21:29:18.701Z,5.10
2022-12-11T21:31:47.059Z,4.90
2022-12-11T21:34:19.397Z,3.90
2022-12-11T21:36:54.970Z,4.30
2022-12-11T21:39:24.984Z,4.50
2022-12-11T21:41:54.134Z,4.30
2022-12-11T21:47:11.096Z,4.30
2022-12-11T21:49:39.268Z,4.30
2022-12-11T21:52:08.880Z,4.20
2022-12-11T21:54:37.470Z,4.30
2022-12-11T21:57:05.941Z,4.30
2022-12-11T21:59:34.667Z,4.70
2022-12-11T22:02:02.852Z,4.60
2022-12-11T22:04:30.906Z,4.70
2022-12-11T22:06:59.204Z,4.90
2022-12-11T22:09:27.213Z,4.90
2022-12-11T22:11:58.598Z,5.20
2022-12-11T22:14:27.314Z,4.50
2022-12-11T22:16:55.841Z,4.80
2022-12-11T22:19:27.743Z,5.30
2022-12-11T22:21:59.026Z,4.70
2022-12-11T22:24:27.036Z,5.20
2022-12-11T22:26:55.434Z,5.50
2022-12-11T22:29:24.088Z,5.30
2022-12-11T22:31:53.487Z,5.60
2022-12-11T22:34:23.117Z,5.70
2022-12-11T22:36:51.455Z,5.30
2022-12-11T22:39:20.094Z,4.70
2022-12-11T22:41:48.775Z,4.90
2022-12-11T22:44:20.267Z,5.00
2022-12-11T22:46:50.405Z,4.60
2022-12-11T22:49:20.219Z,5.00
2022-12-11T22:51:49.167Z,5.50
2022-12-11T22:54:17.286Z,4.70
2022-12-11T22:56:46.125Z,5.40
2022-12-11T22:59:15.676Z,5.40
2022-12-11T23:01:44.067Z,4.80
2022-12-11T23:04:12.565Z,4.90
2022-12-11T23:06:40.716Z,5.70
2022-12-11T23:09:09.047Z,5.30
2022-12-11T23:11:38.981Z,5.20
2022-12-11T23:14:11.241Z,4.90
2022-12-11T23:16:39.452Z,5.10
2022-12-11T23:19:07.583Z,4.80
2022-12-11T23:21:36.729Z,4.40
2022-12-11T23:24:05.384Z,4.70
2022-12-11T23:26:34.270Z,4.80
2022-12-11T23:31:34.669Z,4.30
2022-12-11T23:34:02.753Z,5.20
2022-12-11T23:36:31.313Z,4.60
2022-12-11T23:38:59.260Z,4.70
2022-12-11T23:41:27.307Z,4.90
2022-12-11T23:43:55.275Z,4.30
2022-12-11T23:46:24.716Z,4.00
2022-12-11T23:48:55.363Z,5.00
2022-12-11T23:51:25.791Z,4.20
2022-12-11T23:53:54.483Z,4.40
2022-12-11T23:56:28.569Z,4.00
2022-12-11T23:58:57.456Z,4.40
